createdAt,value
2024-03-16T00:00:19.832Z,18.80
2024-03-16T00:00:51.982Z,17.73
2024-03-16T00:01:24.472Z,17.60
2024-03-16T00:01:56.686Z,17.50
2024-03-16T00:02:28.735Z,17.93
2024-03-16T00:03:01.218Z,17.30
2024-03-16T00:03:33.470Z,17.57
2024-03-16T00:04:05.563Z,16.70
2024-03-16T00:04:37.645Z,16.90
2024-03-16T00:05:09.617Z,16.10
2024-03-16T00:05:41.694Z,16.33
2024-03-16T00:06:13.631Z,17.63
2024-03-16T00:06:45.713Z,17.63
2024-03-16T00:07:17.740Z,17.07
2024-03-16T00:07:50.697Z,17.43
2024-03-16T00:08:22.685Z,16.83
2024-03-16T00:08:54.655Z,16.70
2024-03-16T00:09:26.654Z,17.13
2024-03-16T00:09:58.632Z,17.10
2024-03-16T00:10:30.849Z,15.77
2024-03-16T00:11:02.936Z,16.87
2024-03-16T00:11:35.124Z,16.63
2024-03-16T00:12:07.512Z,16.73
2024-03-16T00:12:39.428Z,16.83
2024-03-16T00:13:11.461Z,17.97
2024-03-16T00:13:43.595Z,17.03
2024-03-16T00:14:15.568Z,16.23
2024-03-16T00:14:49.546Z,16.53
2024-03-16T00:15:21.610Z,16.63
2024-03-16T00:15:53.683Z,16.67
2024-03-16T00:16:25.618Z,16.83
2024-03-16T00:16:57.515Z,18.03
2024-03-16T00:17:29.735Z,17.17
2024-03-16T00:18:01.793Z,17.23
2024-03-16T00:18:37.743Z,17.37
2024-03-16T00:19:09.985Z,17.37
2024-03-16T00:19:41.973Z,17.43
2024-03-16T00:20:15.153Z,17.13
2024-03-16T00:20:47.087Z,17.53
2024-03-16T00:21:19.006Z,17.00
2024-03-16T00:21:52.064Z,17.47
2024-03-16T00:22:24.144Z,17.60
2024-03-16T00:22:56.043Z,17.70
2024-03-16T00:23:29.988Z,17.53
2024-03-16T00:24:01.969Z,17.50
2024-03-16T00:24:33.948Z,17.50
2024-03-16T00:25:10.256Z,17.67
2024-03-16T00:25:42.220Z,17.27
2024-03-16T00:26:14.188Z,17.40
2024-03-16T00:26:46.311Z,17.33
2024-03-16T00:27:19.346Z,18.30
2024-03-16T00:27:54.086Z,18.40
2024-03-16T00:28:26.134Z,17.57
2024-03-16T00:28:58.028Z,17.43
2024-03-16T00:29:30.067Z,18.73
2024-03-16T00:30:02.267Z,19.37
2024-03-16T00:30:34.698Z,18.73
2024-03-16T00:31:07.626Z,18.83
2024-03-16T00:31:39.849Z,17.70
2024-03-16T00:32:11.793Z,18.57
2024-03-16T00:32:43.727Z,16.90
2024-03-16T00:33:16.068Z,17.70
2024-03-16T00:33:48.057Z,18.63
2024-03-16T00:34:20.483Z,19.53
2024-03-16T00:34:52.601Z,19.37
2024-03-16T00:35:25.930Z,18.17
2024-03-16T00:35:57.968Z,17.90
2024-03-16T00:36:31.716Z,17.97
2024-03-16T00:37:05.939Z,18.33
2024-03-16T00:37:38.268Z,19.20
2024-03-16T00:38:11.222Z,18.97
2024-03-16T00:38:43.456Z,18.67
2024-03-16T00:39:19.623Z,19.13
2024-03-16T00:39:51.887Z,18.70
2024-03-16T00:40:24.049Z,18.20
2024-03-16T00:40:56.418Z,18.03
2024-03-16T00:41:28.673Z,19.17
2024-03-16T00:42:00.671Z,19.73
2024-03-16T00:42:32.787Z,18.93
2024-03-16T00:43:05.729Z,19.43
2024-03-16T00:43:38.219Z,19.03
2024-03-16T00:44:10.376Z,19.10
2024-03-16T00:44:42.399Z,19.80
2024-03-16T00:45:14.512Z,19.63
2024-03-16T00:45:46.685Z,19.73
2024-03-16T00:46:18.668Z,19.73
2024-03-16T00:46:50.536Z,17.97
2024-03-16T00:47:22.713Z,18.73
2024-03-16T00:47:57.472Z,19.40
2024-03-16T00:48:29.921Z,19.13
2024-03-16T00:49:01.860Z,18.50
2024-03-16T00:49:33.943Z,19.37
2024-03-16T00:50:06.366Z,18.70
2024-03-16T00:50:38.303Z,19.13
2024-03-16T00:51:11.907Z,18.90
2024-03-16T00:51:44.136Z,18.93
2024-03-16T00:52:16.174Z,18.37
2024-03-16T00:52:48.365Z,18.20
2024-03-16T00:53:20.305Z,18.97
2024-03-16T00:53:52.289Z,18.93
2024-03-16T00:54:25.107Z,18.87
2024-03-16T00:54:57.970Z,20.63
2024-03-16T00:55:31.168Z,19.10
2024-03-16T00:56:04.516Z,18.33
2024-03-16T00:56:36.605Z,19.00
2024-03-16T00:57:08.518Z,19.63
2024-03-16T00:57:40.751Z,19.23
2024-03-16T00:58:12.869Z,19.10
2024-03-16T00:58:44.932Z,19.90
2024-03-16T00:59:17.220Z,18.97
2024-03-16T00:59:49.312Z,20.60
2024-03-16T01:00:21.733Z,19.73
2024-03-16T01:00:53.895Z,18.87
2024-03-16T01:01:29.334Z,17.83
2024-03-16T01:02:01.624Z,17.83
2024-03-16T01:02:33.588Z,18.50
2024-03-16T01:03:05.635Z,19.57
2024-03-16T01:03:37.790Z,18.87
2024-03-16T01:04:10.073Z,19.70
2024-03-16T01:04:42.038Z,18.30
2024-03-16T01:05:14.951Z,18.47
2024-03-16T01:05:52.412Z,19.23
2024-03-16T01:06:24.384Z,18.67
2024-03-16T01:06:56.477Z,19.03
2024-03-16T01:07:28.442Z,18.97
2024-03-16T01:08:00.508Z,19.43
2024-03-16T01:08:32.570Z,18.80
2024-03-16T01:09:05.086Z,18.97
2024-03-16T01:09:37.079Z,19.60
2024-03-16T01:10:12.672Z,19.03
2024-03-16T01:10:45.218Z,19.30
2024-03-16T01:11:17.433Z,19.57
2024-03-16T01:11:49.450Z,19.60
2024-03-16T01:12:21.398Z,18.70
2024-03-16T01:12:53.394Z,19.37
2024-03-16T01:13:25.448Z,19.63
2024-03-16T01:13:57.625Z,19.70
2024-03-16T01:14:30.171Z,19.30
2024-03-16T01:15:02.094Z,19.77
2024-03-16T01:15:34.208Z,19.70
2024-03-16T01:16:06.258Z,20.03
2024-03-16T01:16:38.468Z,20.33
2024-03-16T01:17:10.485Z,20.23
2024-03-16T01:17:43.523Z,20.37
2024-03-16T01:18:15.765Z,20.53
2024-03-16T01:18:47.820Z,20.47
2024-03-16T01:19:19.853Z,20.37
2024-03-16T01:19:52.086Z,19.37
2024-03-16T01:20:25.521Z,19.47
2024-03-16T01:20:57.516Z,20.23
2024-03-16T01:21:29.565Z,20.17
2024-03-16T01:22:02.693Z,20.00
2024-03-16T01:22:34.728Z,19.27
2024-03-16T01:23:07.803Z,18.73
2024-03-16T01:23:40.324Z,20.27
2024-03-16T01:24:12.342Z,19.77
2024-03-16T01:24:44.310Z,18.80
2024-03-16T01:25:16.471Z,19.33
2024-03-16T01:25:48.556Z,18.47
2024-03-16T01:26:20.485Z,18.80
2024-03-16T01:26:52.488Z,19.73
2024-03-16T01:27:24.412Z,19.87
2024-03-16T01:27:57.961Z,18.93
2024-03-16T01:28:29.922Z,19.50
2024-03-16T01:29:04.956Z,19.97
2024-03-16T01:29:36.911Z,19.37
2024-03-16T01:30:09.525Z,18.73
2024-03-16T01:30:41.630Z,19.07
2024-03-16T01:31:15.091Z,19.03
2024-03-16T01:31:47.329Z,19.33
2024-03-16T01:32:19.510Z,19.97
2024-03-16T01:32:51.829Z,20.17
2024-03-16T01:33:24.200Z,19.70
2024-03-16T01:33:56.589Z,19.00
2024-03-16T01:34:28.753Z,19.13
2024-03-16T01:35:00.775Z,18.97
2024-03-16T01:35:32.721Z,18.50
2024-03-16T01:36:05.008Z,19.97
2024-03-16T01:36:37.026Z,19.17
2024-03-16T01:37:09.143Z,19.43
2024-03-16T01:37:41.273Z,19.50
2024-03-16T01:38:13.642Z,18.53
2024-03-16T01:38:45.691Z,19.77
2024-03-16T01:39:17.705Z,19.30
2024-03-16T01:39:51.263Z,19.53
2024-03-16T01:40:26.718Z,19.20
2024-03-16T01:40:58.769Z,19.23
2024-03-16T01:41:30.742Z,19.27
2024-03-16T01:42:04.620Z,19.13
2024-03-16T01:42:37.580Z,19.13
2024-03-16T01:43:14.264Z,18.43
2024-03-16T01:43:49.651Z,19.07
2024-03-16T01:44:21.621Z,19.13
2024-03-16T01:45:11.573Z,19.10
2024-03-16T01:45:44.572Z,19.63
2024-03-16T01:46:17.334Z,19.50
2024-03-16T01:46:49.506Z,19.27
2024-03-16T01:47:21.473Z,19.73
2024-03-16T01:47:54.860Z,19.40
2024-03-16T01:48:27.013Z,19.87
2024-03-16T01:48:58.954Z,19.53
2024-03-16T01:49:30.932Z,19.90
2024-03-16T01:50:02.926Z,19.83
2024-03-16T01:50:34.890Z,18.50
2024-03-16T01:51:08.530Z,19.63
2024-03-16T01:51:41.116Z,20.07
2024-03-16T01:52:14.340Z,20.07
2024-03-16T01:52:48.029Z,19.07
2024-03-16T01:53:19.953Z,19.63
2024-03-16T01:53:51.928Z,19.93
2024-03-16T01:54:24.734Z,19.43
2024-03-16T01:54:56.962Z,19.67
2024-03-16T01:55:29.190Z,20.40
2024-03-16T01:56:01.164Z,21.43
2024-03-16T01:56:33.744Z,21.07
2024-03-16T01:57:05.804Z,21.90
2024-03-16T01:57:41.124Z,21.53
2024-03-16T01:58:13.126Z,21.53
2024-03-16T01:58:46.764Z,20.87
2024-03-16T01:59:19.344Z,20.77
2024-03-16T01:59:51.356Z,20.13
2024-03-16T02:00:23.299Z,20.80
2024-03-16T02:00:55.466Z,20.30
2024-03-16T02:01:27.603Z,21.23
2024-03-16T02:02:03.381Z,21.00
2024-03-16T02:02:38.198Z,21.37
2024-03-16T02:03:10.418Z,21.00
2024-03-16T02:03:43.571Z,20.37
2024-03-16T02:04:15.663Z,20.53
2024-03-16T02:04:47.773Z,19.17
2024-03-16T02:05:21.012Z,20.13
2024-03-16T02:05:52.953Z,19.50
2024-03-16T02:06:29.902Z,18.97
2024-03-16T02:07:10.141Z,19.43
2024-03-16T02:07:45.835Z,18.90
2024-03-16T02:08:17.773Z,19.97
2024-03-16T02:08:49.878Z,20.03
2024-03-16T02:09:22.450Z,18.57
2024-03-16T02:09:54.442Z,20.33
2024-03-16T02:10:26.366Z,19.87
2024-03-16T02:10:58.728Z,19.27
2024-03-16T02:11:30.724Z,19.63
2024-03-16T02:12:02.700Z,17.87
2024-03-16T02:12:35.693Z,18.53
2024-03-16T02:13:07.974Z,19.80
2024-03-16T02:13:40.186Z,20.00
2024-03-16T02:14:12.218Z,21.07
2024-03-16T02:14:44.312Z,20.60
2024-03-16T02:15:16.431Z,20.83
2024-03-16T02:15:48.688Z,20.70
2024-03-16T02:16:20.667Z,21.37
2024-03-16T02:16:56.240Z,20.97
2024-03-16T02:17:28.824Z,20.03
2024-03-16T02:18:01.012Z,19.23
2024-03-16T02:18:33.094Z,19.83
2024-03-16T02:19:05.274Z,19.63
2024-03-16T02:19:37.218Z,19.87
2024-03-16T02:20:16.837Z,20.20
2024-03-16T02:20:49.170Z,20.90
2024-03-16T02:21:21.228Z,21.23
2024-03-16T02:21:53.330Z,19.27
2024-03-16T02:22:25.373Z,19.73
2024-03-16T02:22:57.366Z,21.07
2024-03-16T02:23:32.731Z,20.30
2024-03-16T02:24:05.012Z,20.27
2024-03-16T02:24:37.646Z,20.23
2024-03-16T02:25:14.229Z,18.73
2024-03-16T02:25:46.336Z,19.07
2024-03-16T02:26:18.294Z,19.30
2024-03-16T02:26:51.068Z,20.67
2024-03-16T02:27:23.366Z,19.97
2024-03-16T02:27:55.410Z,19.33
2024-03-16T02:28:27.447Z,19.53
2024-03-16T02:28:59.482Z,20.53
2024-03-16T02:29:36.635Z,20.20
2024-03-16T02:30:12.139Z,19.47
2024-03-16T02:30:44.857Z,18.63
2024-03-16T02:31:17.055Z,18.50
2024-03-16T02:31:50.882Z,18.23
2024-03-16T02:32:23.959Z,18.97
2024-03-16T02:32:55.991Z,19.87
2024-03-16T02:33:29.093Z,19.83
2024-03-16T02:34:01.315Z,20.17
2024-03-16T02:34:34.706Z,19.87
2024-03-16T02:35:09.420Z,19.70
2024-03-16T02:35:41.455Z,20.33
2024-03-16T02:36:14.538Z,19.77
2024-03-16T02:36:46.573Z,19.63
2024-03-16T02:37:20.333Z,20.10
2024-03-16T02:37:52.234Z,19.07
2024-03-16T02:38:24.283Z,19.53
2024-03-16T02:38:56.229Z,19.50
2024-03-16T02:39:28.179Z,19.53
2024-03-16T02:40:00.218Z,20.27
2024-03-16T02:40:33.112Z,19.80
2024-03-16T02:41:08.650Z,20.33
2024-03-16T02:41:40.956Z,20.83
2024-03-16T02:42:12.865Z,20.23
2024-03-16T02:42:45.519Z,20.50
2024-03-16T02:43:17.746Z,20.37
2024-03-16T02:43:49.707Z,20.47
2024-03-16T02:44:21.603Z,20.40
2024-03-16T02:44:53.767Z,20.30
2024-03-16T02:45:25.803Z,20.43
2024-03-16T02:45:59.797Z,20.10
2024-03-16T02:46:32.037Z,20.90
2024-03-16T02:47:05.745Z,19.40
2024-03-16T02:47:37.849Z,19.27
2024-03-16T02:48:11.160Z,19.23
2024-03-16T02:48:43.896Z,21.07
2024-03-16T02:49:16.724Z,20.50
2024-03-16T02:49:50.690Z,20.03
2024-03-16T02:50:22.930Z,20.53
2024-03-16T02:50:54.912Z,21.63
2024-03-16T02:51:26.899Z,20.00
2024-03-16T02:51:59.087Z,20.17
2024-03-16T02:52:34.659Z,19.10
2024-03-16T02:53:06.763Z,18.33
2024-03-16T02:53:38.999Z,19.40
2024-03-16T02:54:11.008Z,19.30
2024-03-16T02:54:43.190Z,20.53
2024-03-16T02:55:15.200Z,19.93
2024-03-16T02:55:47.169Z,18.47
2024-03-16T02:56:20.283Z,17.57
2024-03-16T02:56:52.911Z,18.93
2024-03-16T02:57:25.598Z,19.93
2024-03-16T02:57:57.570Z,20.53
2024-03-16T02:58:30.310Z,19.87
2024-03-16T02:59:02.847Z,20.50
2024-03-16T02:59:34.835Z,19.07
2024-03-16T03:00:13.616Z,20.10
2024-03-16T03:00:45.622Z,20.60
2024-03-16T03:01:18.132Z,23.83
2024-03-16T03:01:50.259Z,23.53
2024-03-16T03:02:25.592Z,22.17
2024-03-16T03:02:58.617Z,21.57
2024-03-16T03:03:30.693Z,21.93
2024-03-16T03:04:03.191Z,21.90
2024-03-16T03:04:35.602Z,21.40
2024-03-16T03:05:12.451Z,21.27
2024-03-16T03:05:44.744Z,21.53
2024-03-16T03:06:16.771Z,21.17
2024-03-16T03:06:48.774Z,21.20
2024-03-16T03:07:20.957Z,21.40
2024-03-16T03:07:54.025Z,20.63
2024-03-16T03:08:26.348Z,20.20
2024-03-16T03:08:58.259Z,19.40
2024-03-16T03:09:30.704Z,19.73
2024-03-16T03:10:02.970Z,20.10
2024-03-16T03:10:35.085Z,19.70
2024-03-16T03:11:07.075Z,19.43
2024-03-16T03:11:39.669Z,19.53
2024-03-16T03:12:11.643Z,19.50
2024-03-16T03:12:43.805Z,19.53
2024-03-16T03:13:15.814Z,19.27
2024-03-16T03:13:51.829Z,19.37
2024-03-16T03:14:23.730Z,19.53
2024-03-16T03:14:55.660Z,20.03
2024-03-16T03:15:28.427Z,19.93
2024-03-16T03:16:00.486Z,19.33
2024-03-16T03:16:32.464Z,18.03
2024-03-16T03:17:04.453Z,18.93
2024-03-16T03:17:36.472Z,18.37
2024-03-16T03:18:08.541Z,18.10
2024-03-16T03:18:40.676Z,19.23
2024-03-16T03:19:12.747Z,19.27
2024-03-16T03:19:46.270Z,19.60
2024-03-16T03:20:22.129Z,18.67
2024-03-16T03:20:55.120Z,18.50
2024-03-16T03:21:27.233Z,18.47
2024-03-16T03:21:59.191Z,18.63
2024-03-16T03:22:31.122Z,18.23
2024-03-16T03:23:06.634Z,18.20
2024-03-16T03:23:38.681Z,18.93
2024-03-16T03:24:10.564Z,19.10
2024-03-16T03:24:42.481Z,17.77
2024-03-16T03:25:14.792Z,17.63
2024-03-16T03:25:49.301Z,18.57
2024-03-16T03:26:21.740Z,19.57
2024-03-16T03:26:53.673Z,18.73
2024-03-16T03:27:26.257Z,18.53
2024-03-16T03:27:58.546Z,19.07
2024-03-16T03:28:30.513Z,20.77
2024-03-16T03:29:02.549Z,20.43
2024-03-16T03:29:34.471Z,19.83
2024-03-16T03:30:07.447Z,20.13
2024-03-16T03:30:39.597Z,21.17
2024-03-16T03:31:12.334Z,20.70
2024-03-16T03:31:44.387Z,21.07
2024-03-16T03:32:16.279Z,22.03
2024-03-16T03:32:48.278Z,22.10
2024-03-16T03:33:20.254Z,22.13
2024-03-16T03:33:52.281Z,20.97
2024-03-16T03:34:25.267Z,21.07
2024-03-16T03:34:57.241Z,20.80
2024-03-16T03:35:29.900Z,20.77
2024-03-16T03:36:04.065Z,21.23
2024-03-16T03:36:36.206Z,20.53
2024-03-16T03:37:09.248Z,21.67
2024-03-16T03:37:41.195Z,21.23
2024-03-16T03:38:13.189Z,20.80
2024-03-16T03:38:45.290Z,21.73
2024-03-16T03:39:17.965Z,22.07
2024-03-16T03:39:53.796Z,21.40
2024-03-16T03:40:26.597Z,21.00
2024-03-16T03:40:59.025Z,20.80
2024-03-16T03:41:30.914Z,20.87
2024-03-16T03:42:02.810Z,21.30
2024-03-16T03:42:36.298Z,21.87
2024-03-16T03:43:18.294Z,22.37
2024-03-16T03:43:59.005Z,21.43
2024-03-16T03:44:51.282Z,22.00
2024-03-16T03:45:28.995Z,19.97
2024-03-16T03:46:01.041Z,18.83
2024-03-16T03:46:52.088Z,18.30
2024-03-16T03:47:31.719Z,19.90
2024-03-16T03:48:05.563Z,19.13
2024-03-16T03:48:37.826Z,19.10
2024-03-16T03:49:13.173Z,18.27
2024-03-16T03:49:52.177Z,18.57
2024-03-16T03:50:30.557Z,19.13
2024-03-16T03:51:04.171Z,20.73
2024-03-16T03:51:36.234Z,19.97
2024-03-16T03:52:08.296Z,20.37
2024-03-16T03:52:40.251Z,19.93
2024-03-16T03:53:12.385Z,20.30
2024-03-16T03:53:44.714Z,21.63
2024-03-16T03:54:16.632Z,20.80
2024-03-16T03:54:48.704Z,20.20
2024-03-16T03:55:20.780Z,19.73
2024-03-16T03:55:53.526Z,20.67
2024-03-16T03:56:25.456Z,21.70
2024-03-16T03:56:57.458Z,22.60
2024-03-16T03:57:29.576Z,22.30
2024-03-16T03:58:03.583Z,23.47
2024-03-16T03:58:35.750Z,22.80
2024-03-16T03:59:07.855Z,21.00
2024-03-16T03:59:39.865Z,20.97
2024-03-16T04:00:12.407Z,21.47
2024-03-16T04:00:45.948Z,21.70
2024-03-16T04:01:18.987Z,22.37
2024-03-16T04:01:51.085Z,21.73
2024-03-16T04:02:23.054Z,21.50
2024-03-16T04:02:55.152Z,21.90
2024-03-16T04:03:27.141Z,21.77
2024-03-16T04:04:00.186Z,21.60
2024-03-16T04:04:32.627Z,21.63
2024-03-16T04:05:04.888Z,21.47
2024-03-16T04:05:37.863Z,22.60
2024-03-16T04:06:09.840Z,22.90
2024-03-16T04:06:45.933Z,22.93
2024-03-16T04:07:18.169Z,22.47
2024-03-16T04:07:50.161Z,22.97
2024-03-16T04:08:22.164Z,23.97
2024-03-16T04:08:54.048Z,22.87
2024-03-16T04:09:26.034Z,23.33
2024-03-16T04:09:58.057Z,23.63
2024-03-16T04:10:29.982Z,22.90
2024-03-16T04:11:07.105Z,23.67
2024-03-16T04:11:40.991Z,22.77
2024-03-16T04:12:13.993Z,22.93
2024-03-16T04:12:46.966Z,22.70
2024-03-16T04:13:19.077Z,22.43
2024-03-16T04:13:51.024Z,22.80
2024-03-16T04:14:23.557Z,25.23
2024-03-16T04:14:55.498Z,24.47
2024-03-16T04:15:27.927Z,23.60
2024-03-16T04:15:59.939Z,23.10
2024-03-16T04:16:31.995Z,23.03
2024-03-16T04:17:04.145Z,23.47
2024-03-16T04:17:36.109Z,22.73
2024-03-16T04:18:08.328Z,23.07
2024-03-16T04:18:40.471Z,24.27
2024-03-16T04:19:12.605Z,23.73
2024-03-16T04:19:45.804Z,23.47
2024-03-16T04:20:21.446Z,22.90
2024-03-16T04:20:53.327Z,22.67
2024-03-16T04:21:25.472Z,24.00
2024-03-16T04:21:57.442Z,24.07
2024-03-16T04:22:29.452Z,23.47
2024-03-16T04:23:02.797Z,23.50
2024-03-16T04:23:35.183Z,23.73
2024-03-16T04:24:07.594Z,22.67
2024-03-16T04:24:39.545Z,22.80
2024-03-16T04:25:15.518Z,24.70
2024-03-16T04:25:50.235Z,24.57
2024-03-16T04:26:22.310Z,23.40
2024-03-16T04:26:54.260Z,24.00
2024-03-16T04:27:26.257Z,22.97
2024-03-16T04:27:58.289Z,24.10
2024-03-16T04:28:30.519Z,25.07
2024-03-16T04:29:02.477Z,24.90
2024-03-16T04:29:34.384Z,24.50
2024-03-16T04:30:10.580Z,24.50
2024-03-16T04:30:42.542Z,24.40
2024-03-16T04:31:14.584Z,24.63
2024-03-16T04:31:47.156Z,25.53
2024-03-16T04:32:19.347Z,25.63
2024-03-16T04:32:51.466Z,25.13
2024-03-16T04:33:23.571Z,24.90
2024-03-16T04:33:55.540Z,26.30
2024-03-16T04:34:28.048Z,27.53
2024-03-16T04:35:00.502Z,29.23
2024-03-16T04:35:32.391Z,28.37
2024-03-16T04:36:04.431Z,26.93
2024-03-16T04:36:36.740Z,27.67
2024-03-16T04:37:10.018Z,27.90
2024-03-16T04:37:41.961Z,28.47
2024-03-16T04:38:14.373Z,28.23
2024-03-16T04:38:46.320Z,28.00
2024-03-16T04:39:18.411Z,28.17
2024-03-16T04:39:50.341Z,28.63
2024-03-16T04:40:22.451Z,29.17
2024-03-16T04:40:55.492Z,28.80
2024-03-16T04:41:28.861Z,27.70
2024-03-16T04:42:01.894Z,27.33
2024-03-16T04:42:33.968Z,27.33
2024-03-16T04:43:06.140Z,28.27
2024-03-16T04:43:38.185Z,27.37
2024-03-16T04:44:10.116Z,27.37
2024-03-16T04:44:42.166Z,27.63
2024-03-16T04:45:14.146Z,28.83
2024-03-16T04:45:51.707Z,29.23
2024-03-16T04:46:24.654Z,29.13
2024-03-16T04:46:56.746Z,28.50
2024-03-16T04:47:28.935Z,28.07
2024-03-16T04:48:00.975Z,28.50
2024-03-16T04:48:32.954Z,30.37
2024-03-16T04:49:05.916Z,29.07
2024-03-16T04:49:37.924Z,29.13
2024-03-16T04:50:12.732Z,28.93
2024-03-16T04:50:45.546Z,29.27
2024-03-16T04:51:18.333Z,28.63
2024-03-16T04:51:50.287Z,27.97
2024-03-16T04:52:22.410Z,27.33
2024-03-16T04:52:54.335Z,27.47
2024-03-16T04:53:26.225Z,27.73
2024-03-16T04:53:58.398Z,27.40
2024-03-16T04:54:30.650Z,26.10
2024-03-16T04:55:04.572Z,26.00
2024-03-16T04:55:36.683Z,25.43
2024-03-16T04:56:08.631Z,25.60
2024-03-16T04:56:40.546Z,26.83
2024-03-16T04:57:13.854Z,26.43
2024-03-16T04:57:45.911Z,26.73
2024-03-16T04:58:18.081Z,25.93
2024-03-16T04:58:50.184Z,25.47
2024-03-16T04:59:22.064Z,25.13
2024-03-16T04:59:54.034Z,26.80
2024-03-16T05:00:26.116Z,27.43
2024-03-16T05:00:59.963Z,28.53
2024-03-16T05:01:32.118Z,27.97
2024-03-16T05:02:04.290Z,27.13
2024-03-16T05:02:36.298Z,26.33
2024-03-16T05:03:08.192Z,25.97
2024-03-16T05:03:40.264Z,24.87
2024-03-16T05:04:12.374Z,24.30
2024-03-16T05:04:44.426Z,25.23
2024-03-16T05:05:16.397Z,25.70
2024-03-16T05:05:51.717Z,24.87
2024-03-16T05:06:23.855Z,24.03
2024-03-16T05:06:55.889Z,24.67
2024-03-16T05:07:27.849Z,24.40
2024-03-16T05:07:59.933Z,24.10
2024-03-16T05:08:32.054Z,23.70
2024-03-16T05:09:06.794Z,22.63
2024-03-16T05:09:38.720Z,23.20
2024-03-16T05:10:12.827Z,23.47
2024-03-16T05:10:51.171Z,22.80
2024-03-16T05:11:23.260Z,23.07
2024-03-16T05:11:56.118Z,22.93
2024-03-16T05:12:28.227Z,23.47
2024-03-16T05:13:00.206Z,23.80
2024-03-16T05:13:34.687Z,23.87
2024-03-16T05:14:07.551Z,24.43
2024-03-16T05:14:39.471Z,24.80
2024-03-16T05:15:11.437Z,24.33
2024-03-16T05:15:43.410Z,23.80
2024-03-16T05:16:15.436Z,23.80
2024-03-16T05:16:47.407Z,24.70
2024-03-16T05:17:19.443Z,24.43
2024-03-16T05:17:51.509Z,24.43
2024-03-16T05:18:23.457Z,24.93
2024-03-16T05:18:55.402Z,24.43
2024-03-16T05:19:27.380Z,24.70
2024-03-16T05:19:59.580Z,24.47
2024-03-16T05:20:31.529Z,24.57
2024-03-16T05:21:03.787Z,27.20
2024-03-16T05:21:36.344Z,27.37
2024-03-16T05:22:09.142Z,28.30
2024-03-16T05:22:41.175Z,28.33
2024-03-16T05:23:13.549Z,27.47
2024-03-16T05:23:46.847Z,26.40
2024-03-16T05:24:18.862Z,26.30
2024-03-16T05:24:50.822Z,26.17
2024-03-16T05:25:23.857Z,26.83
2024-03-16T05:25:55.854Z,25.87
2024-03-16T05:26:30.198Z,25.53
2024-03-16T05:27:02.179Z,27.33
2024-03-16T05:27:36.632Z,25.53
2024-03-16T05:28:08.746Z,25.87
2024-03-16T05:28:41.015Z,25.40
2024-03-16T05:29:12.948Z,26.03
2024-03-16T05:29:44.909Z,25.47
2024-03-16T05:30:16.853Z,24.60
2024-03-16T05:30:53.810Z,26.10
2024-03-16T05:31:25.939Z,25.70
2024-03-16T05:32:00.412Z,25.47
2024-03-16T05:32:32.475Z,25.90
2024-03-16T05:33:08.262Z,24.90
2024-03-16T05:33:40.526Z,25.43
2024-03-16T05:34:12.557Z,26.07
2024-03-16T05:34:44.584Z,25.03
2024-03-16T05:35:17.384Z,24.50
2024-03-16T05:35:49.359Z,24.13
2024-03-16T05:36:21.386Z,23.53
2024-03-16T05:36:53.449Z,25.33
2024-03-16T05:37:27.214Z,24.20
2024-03-16T05:37:59.902Z,22.97
2024-03-16T05:38:31.821Z,22.80
2024-03-16T05:39:04.011Z,23.33
2024-03-16T05:39:36.512Z,23.60
2024-03-16T05:40:12.445Z,24.20
2024-03-16T05:40:47.260Z,23.73
2024-03-16T05:41:19.279Z,25.20
2024-03-16T05:41:51.619Z,25.90
2024-03-16T05:42:23.576Z,24.53
2024-03-16T05:42:56.116Z,25.33
2024-03-16T05:43:28.160Z,25.23
2024-03-16T05:44:00.233Z,25.33
2024-03-16T05:44:32.421Z,27.60
2024-03-16T05:45:04.797Z,27.00
2024-03-16T05:45:37.579Z,27.60
2024-03-16T05:46:09.664Z,26.07
2024-03-16T05:46:42.185Z,27.77
2024-03-16T05:47:14.206Z,28.60
2024-03-16T05:47:46.198Z,28.20
2024-03-16T05:48:19.253Z,28.07
2024-03-16T05:48:51.512Z,26.70
2024-03-16T05:49:26.050Z,28.23
2024-03-16T05:49:58.780Z,28.10
2024-03-16T05:50:30.660Z,27.77
2024-03-16T05:51:03.738Z,27.63
2024-03-16T05:51:36.030Z,28.33
2024-03-16T05:52:08.190Z,27.93
2024-03-16T05:52:40.227Z,27.23
2024-03-16T05:53:15.605Z,27.00
2024-03-16T05:53:48.208Z,26.87
2024-03-16T05:54:20.127Z,28.53
2024-03-16T05:54:52.571Z,28.90
2024-03-16T05:55:24.721Z,28.37
2024-03-16T05:55:56.708Z,27.73
2024-03-16T05:56:28.665Z,26.50
2024-03-16T05:57:00.734Z,26.50
2024-03-16T05:57:32.852Z,26.30
2024-03-16T05:58:04.910Z,27.80
2024-03-16T05:58:37.017Z,26.43
2024-03-16T05:59:10.210Z,25.90
2024-03-16T05:59:42.325Z,25.70
2024-03-16T06:00:16.984Z,25.30
2024-03-16T06:00:49.957Z,26.97
2024-03-16T06:01:22.873Z,26.93
2024-03-16T06:01:55.170Z,26.67
2024-03-16T06:02:27.104Z,26.20
2024-03-16T06:02:59.119Z,27.10
2024-03-16T06:03:31.935Z,28.90
2024-03-16T06:04:04.194Z,27.23
2024-03-16T06:04:36.650Z,28.73
2024-03-16T06:05:09.040Z,27.63
2024-03-16T06:05:42.509Z,27.43
2024-03-16T06:06:14.486Z,27.20
2024-03-16T06:06:47.800Z,27.33
2024-03-16T06:07:21.858Z,27.80
2024-03-16T06:07:53.837Z,27.40
2024-03-16T06:08:25.831Z,28.10
2024-03-16T06:08:57.720Z,26.47
2024-03-16T06:09:29.730Z,26.20
2024-03-16T06:10:01.824Z,26.17
2024-03-16T06:10:33.830Z,27.83
2024-03-16T06:11:06.115Z,28.27
2024-03-16T06:11:38.070Z,29.27
2024-03-16T06:12:10.820Z,29.83
2024-03-16T06:12:42.780Z,28.07
2024-03-16T06:13:14.798Z,30.10
2024-03-16T06:13:46.854Z,29.90
2024-03-16T06:14:18.837Z,28.70
2024-03-16T06:14:52.089Z,30.07
2024-03-16T06:15:24.275Z,33.27
2024-03-16T06:15:56.306Z,40.27
2024-03-16T06:16:28.360Z,36.03
2024-03-16T06:17:00.225Z,32.53
2024-03-16T06:17:32.405Z,35.50
2024-03-16T06:18:04.788Z,49.30
2024-03-16T06:18:38.962Z,53.37
2024-03-16T06:19:13.626Z,56.20
2024-03-16T06:19:45.565Z,51.10
2024-03-16T06:20:19.749Z,44.00
2024-03-16T06:20:52.744Z,38.73
2024-03-16T06:21:24.645Z,37.23
2024-03-16T06:21:56.910Z,34.93
2024-03-16T06:22:28.918Z,33.30
2024-03-16T06:23:00.827Z,32.67
2024-03-16T06:23:33.767Z,32.80
2024-03-16T06:24:06.272Z,30.73
2024-03-16T06:24:38.208Z,30.07
2024-03-16T06:25:14.474Z,31.40
2024-03-16T06:25:51.130Z,30.90
2024-03-16T06:26:23.569Z,32.00
2024-03-16T06:27:02.022Z,32.20
2024-03-16T06:27:35.030Z,32.10
2024-03-16T06:28:07.902Z,32.37
2024-03-16T06:28:40.956Z,30.97
2024-03-16T06:29:13.603Z,28.93
2024-03-16T06:29:53.118Z,28.40
2024-03-16T06:30:29.577Z,27.17
2024-03-16T06:31:09.147Z,26.23
2024-03-16T06:31:42.563Z,26.13
2024-03-16T06:32:21.451Z,23.50
2024-03-16T06:33:12.676Z,23.53
2024-03-16T06:33:49.623Z,24.83
2024-03-16T06:34:21.657Z,24.63
2024-03-16T06:34:54.753Z,24.53
2024-03-16T06:35:26.799Z,23.57
2024-03-16T06:35:58.807Z,23.90
2024-03-16T06:36:30.805Z,23.77
2024-03-16T06:37:02.953Z,24.63
2024-03-16T06:37:38.191Z,23.37
2024-03-16T06:38:10.455Z,23.40
2024-03-16T06:38:43.478Z,23.27
2024-03-16T06:39:15.542Z,23.00
2024-03-16T06:39:47.586Z,23.73
2024-03-16T06:40:19.640Z,23.03
2024-03-16T06:40:51.928Z,31.27
2024-03-16T06:41:24.037Z,61.23
2024-03-16T06:41:55.990Z,71.80
2024-03-16T06:42:29.475Z,75.73
2024-03-16T06:43:01.544Z,81.43
2024-03-16T06:43:33.794Z,74.80
2024-03-16T06:44:05.993Z,61.63
2024-03-16T06:44:38.257Z,45.33
2024-03-16T06:45:10.245Z,43.17
2024-03-16T06:45:43.051Z,42.03
2024-03-16T06:46:15.084Z,37.73
2024-03-16T06:46:47.216Z,33.23
2024-03-16T06:47:19.186Z,32.97
2024-03-16T06:47:51.242Z,30.23
2024-03-16T06:48:23.842Z,30.33
2024-03-16T06:48:55.848Z,30.40
2024-03-16T06:49:27.885Z,29.93
2024-03-16T06:49:59.807Z,30.20
2024-03-16T06:50:33.235Z,28.83
2024-03-16T06:51:05.409Z,28.10
2024-03-16T06:51:37.447Z,28.10
2024-03-16T06:52:09.848Z,28.03
2024-03-16T06:52:41.837Z,29.83
2024-03-16T06:53:13.818Z,29.83
2024-03-16T06:53:48.841Z,28.73
2024-03-16T06:54:20.793Z,35.50
2024-03-16T06:54:55.636Z,33.30
2024-03-16T06:55:27.720Z,32.43
2024-03-16T06:55:59.655Z,31.10
2024-03-16T06:56:31.607Z,31.03
2024-03-16T06:57:03.528Z,31.33
2024-03-16T06:57:35.461Z,30.77
2024-03-16T06:58:09.140Z,31.43
2024-03-16T06:58:42.117Z,30.40
2024-03-16T06:59:14.059Z,29.90
2024-03-16T06:59:46.072Z,31.00
2024-03-16T07:00:18.707Z,33.40
2024-03-16T07:00:50.749Z,32.00
2024-03-16T07:01:25.859Z,29.60
2024-03-16T07:01:57.960Z,30.93
2024-03-16T07:02:29.997Z,31.40